Pagina principale
METAR-TAF:

METAR-TAF

Aeroporti :

Bolzano, Italia

latitudine: 46-28N, longitudine: 011-20E, altezza: 262 m

Osservazione

Il bollettino è stato emesso 33 minuti fa, alle 11:50 UTC
Vento 1 kt da ovest
Temperature 10°C
Umidità 43%
Pressione 1012 hPa
Visibilità 10 km o più
Poco nuvoloso ad un'altezza di 7000 ft

METAR: LIPB 191150Z 26001KT 9999 FEW070 10/M02 Q1012

Ora: 13:23 (12:23 UTC)

Previsione

Il bollettino è stato emesso 1 ora e 23 minuti fa, alle 11:00 UTC
Previsione valida dal 19 alle 12 UTC al 20 alle 12 UTC
Vento 5 kt da direzioni variabili
Visibilità 10 km o più
Nuvoloso ad un'altezza di 4000 ft

TAF: LIPB 191100Z 1912/2012 VRB05KT 9999 BKN040

Osservazioni e previsioni meteorologiche di più di 4000 aeroporti (messaggi METAR e TAF).

Le stazioni disponibili sono rappresentate dai dischi gialli e rossi sulla carta.

Puntare il mouse per vedere il nome della stazione.

Clicca sopra per visualizzare le osservazioni e previsioni meteorologiche.

Per cambiare la mappa : fare clic sui pulsanti verdi con una croce nera per ingrandire, il pulsante verde con un trattino per diminuire, o sulla freccia verde per le mappe adiacenti.


METAR-TAF: